sensor_id;sensor_type;location;lat;lon;timestamp;P1;durP1;ratioP1;P2;durP2;ratioP2
69716;SDS011;67420;46.144;19.666;2023-07-20T00:07:15;2.05;;;1.48;;
69716;SDS011;67420;46.144;19.666;2023-07-20T00:17:17;2.83;;;1.80;;
69716;SDS011;67420;46.144;19.666;2023-07-20T00:27:19;2.88;;;1.80;;
69716;SDS011;67420;46.144;19.666;2023-07-20T00:37:21;3.50;;;1.80;;
69716;SDS011;67420;46.144;19.666;2023-07-20T00:47:23;3.92;;;2.30;;
69716;SDS011;67420;46.144;19.666;2023-07-20T00:57:25;6.75;;;2.35;;
69716;SDS011;67420;46.144;19.666;2023-07-20T01:07:52;3.70;;;2.25;;
69716;SDS011;67420;46.144;19.666;2023-07-20T01:18:01;3.92;;;2.47;;
69716;SDS011;67420;46.144;19.666;2023-07-20T01:38:43;4.68;;;2.45;;
69716;SDS011;67420;46.144;19.666;2023-07-20T01:48:46;5.22;;;2.50;;
69716;SDS011;67420;46.144;19.666;2023-07-20T01:58:48;4.47;;;2.53;;
69716;SDS011;67420;46.144;19.666;2023-07-20T02:08:51;5.60;;;2.20;;
69716;SDS011;67420;46.144;19.666;2023-07-20T02:18:53;4.20;;;2.50;;
69716;SDS011;67420;46.144;19.666;2023-07-20T02:28:55;4.80;;;2.20;;
69716;SDS011;67420;46.144;19.666;2023-07-20T02:38:57;4.80;;;2.30;;
69716;SDS011;67420;46.144;19.666;2023-07-20T02:48:59;5.65;;;2.40;;
69716;SDS011;67420;46.144;19.666;2023-07-20T02:59:01;3.83;;;1.98;;
69716;SDS011;67420;46.144;19.666;2023-07-20T03:09:04;5.97;;;2.42;;
69716;SDS011;67420;46.144;19.666;2023-07-20T03:19:07;6.88;;;2.25;;
69716;SDS011;67420;46.144;19.666;2023-07-20T03:29:09;3.45;;;2.10;;
69716;SDS011;67420;46.144;19.666;2023-07-20T03:39:11;3.90;;;1.98;;
69716;SDS011;67420;46.144;19.666;2023-07-20T03:49:13;3.05;;;2.00;;
69716;SDS011;67420;46.144;19.666;2023-07-20T03:59:15;3.28;;;2.05;;
69716;SDS011;67420;46.144;19.666;2023-07-20T04:09:17;3.08;;;1.90;;
69716;SDS011;67420;46.144;19.666;2023-07-20T04:19:19;2.75;;;2.10;;
69716;SDS011;67420;46.144;19.666;2023-07-20T04:29:21;3.65;;;2.20;;
69716;SDS011;67420;46.144;19.666;2023-07-20T04:39:24;2.90;;;1.90;;
69716;SDS011;67420;46.144;19.666;2023-07-20T04:49:33;3.22;;;2.13;;
69716;SDS011;67420;46.144;19.666;2023-07-20T04:59:34;3.78;;;1.90;;
69716;SDS011;67420;46.144;19.666;2023-07-20T05:09:37;2.72;;;2.00;;
69716;SDS011;67420;46.144;19.666;2023-07-20T05:19:39;4.20;;;2.08;;
69716;SDS011;67420;46.144;19.666;2023-07-20T05:29:45;3.05;;;2.20;;
69716;SDS011;67420;46.144;19.666;2023-07-20T05:39:47;3.97;;;1.80;;
69716;SDS011;67420;46.144;19.666;2023-07-20T05:49:50;3.38;;;1.80;;
69716;SDS011;67420;46.144;19.666;2023-07-20T05:59:51;3.08;;;1.80;;
69716;SDS011;67420;46.144;19.666;2023-07-20T06:09:54;2.35;;;1.70;;
69716;SDS011;67420;46.144;19.666;2023-07-20T06:19:56;2.10;;;1.70;;
69716;SDS011;67420;46.144;19.666;2023-07-20T06:29:58;2.97;;;1.73;;
69716;SDS011;67420;46.144;19.666;2023-07-20T06:40:01;1.85;;;1.45;;
69716;SDS011;67420;46.144;19.666;2023-07-20T06:50:09;3.88;;;1.65;;
69716;SDS011;67420;46.144;19.666;2023-07-20T07:00:17;3.53;;;1.73;;
69716;SDS011;67420;46.144;19.666;2023-07-20T07:10:20;2.92;;;1.77;;
69716;SDS011;67420;46.144;19.666;2023-07-20T07:20:22;3.63;;;1.80;;
69716;SDS011;67420;46.144;19.666;2023-07-20T07:30:25;2.38;;;1.75;;
69716;SDS011;67420;46.144;19.666;2023-07-20T07:40:27;5.88;;;1.88;;
69716;SDS011;67420;46.144;19.666;2023-07-20T07:50:29;2.15;;;1.63;;
69716;SDS011;67420;46.144;19.666;2023-07-20T08:00:31;2.90;;;1.90;;
69716;SDS011;67420;46.144;19.666;2023-07-20T08:10:34;4.88;;;1.88;;
69716;SDS011;67420;46.144;19.666;2023-07-20T08:20:36;2.33;;;1.90;;
69716;SDS011;67420;46.144;19.666;2023-07-20T08:40:48;3.05;;;1.90;;
69716;SDS011;67420;46.144;19.666;2023-07-20T08:50:51;1.90;;;1.70;;
69716;SDS011;67420;46.144;19.666;2023-07-20T09:00:57;2.28;;;1.85;;
69716;SDS011;67420;46.144;19.666;2023-07-20T09:11:04;3.00;;;1.90;;
69716;SDS011;67420;46.144;19.666;2023-07-20T09:21:06;1.92;;;1.73;;
69716;SDS011;67420;46.144;19.666;2023-07-20T09:31:29;2.15;;;1.85;;
69716;SDS011;67420;46.144;19.666;2023-07-20T09:41:41;2.92;;;1.90;;
69716;SDS011;67420;46.144;19.666;2023-07-20T09:51:48;4.55;;;1.95;;
69716;SDS011;67420;46.144;19.666;2023-07-20T10:01:51;2.60;;;2.00;;
69716;SDS011;67420;46.144;19.666;2023-07-20T10:11:59;2.33;;;1.90;;
69716;SDS011;67420;46.144;19.666;2023-07-20T10:22:19;2.97;;;2.27;;
69716;SDS011;67420;46.144;19.666;2023-07-20T10:32:28;2.78;;;1.75;;
69716;SDS011;67420;46.144;19.666;2023-07-20T10:42:32;2.63;;;2.10;;
69716;SDS011;67420;46.144;19.666;2023-07-20T10:52:41;4.45;;;1.90;;
69716;SDS011;67420;46.144;19.666;2023-07-20T11:02:43;2.30;;;2.00;;
69716;SDS011;67420;46.144;19.666;2023-07-20T11:23:24;3.30;;;2.25;;
69716;SDS011;67420;46.144;19.666;2023-07-20T11:33:26;2.25;;;1.73;;
69716;SDS011;67420;46.144;19.666;2023-07-20T11:43:28;2.33;;;1.88;;
69716;SDS011;67420;46.144;19.666;2023-07-20T11:53:29;2.10;;;1.80;;
69716;SDS011;67420;46.144;19.666;2023-07-20T12:03:31;2.30;;;1.92;;
69716;SDS011;67420;46.144;19.666;2023-07-20T12:13:37;2.90;;;2.15;;
69716;SDS011;67420;46.144;19.666;2023-07-20T12:23:40;2.42;;;2.10;;
69716;SDS011;67420;46.144;19.666;2023-07-20T12:33:43;3.80;;;2.10;;
69716;SDS011;67420;46.144;19.666;2023-07-20T12:43:46;2.70;;;2.00;;
69716;SDS011;67420;46.144;19.666;2023-07-20T12:53:48;3.50;;;2.00;;
69716;SDS011;67420;46.144;19.666;2023-07-20T13:03:50;3.95;;;2.30;;
69716;SDS011;67420;46.144;19.666;2023-07-20T13:13:55;22.38;;;3.85;;
69716;SDS011;67420;46.144;19.666;2023-07-20T13:23:57;15.63;;;3.08;;
69716;SDS011;67420;46.144;19.666;2023-07-20T13:33:59;13.27;;;2.95;;
69716;SDS011;67420;46.144;19.666;2023-07-20T13:44:05;7.43;;;2.60;;
69716;SDS011;67420;46.144;19.666;2023-07-20T13:54:08;11.90;;;2.65;;
69716;SDS011;67420;46.144;19.666;2023-07-20T14:04:13;7.30;;;3.03;;
69716;SDS011;67420;46.144;19.666;2023-07-20T14:14:15;5.43;;;2.38;;
69716;SDS011;67420;46.144;19.666;2023-07-20T14:24:17;6.70;;;2.30;;
69716;SDS011;67420;46.144;19.666;2023-07-20T14:34:20;11.30;;;2.63;;
69716;SDS011;67420;46.144;19.666;2023-07-20T14:44:22;5.65;;;2.58;;
69716;SDS011;67420;46.144;19.666;2023-07-20T14:54:25;7.05;;;2.42;;
69716;SDS011;67420;46.144;19.666;2023-07-20T15:04:26;3.30;;;2.20;;
69716;SDS011;67420;46.144;19.666;2023-07-20T15:14:30;5.72;;;2.22;;
69716;SDS011;67420;46.144;19.666;2023-07-20T15:24:32;8.27;;;2.67;;
69716;SDS011;67420;46.144;19.666;2023-07-20T15:34:36;7.50;;;2.58;;
69716;SDS011;67420;46.144;19.666;2023-07-20T15:44:39;4.70;;;2.55;;
69716;SDS011;67420;46.144;19.666;2023-07-20T15:54:41;3.17;;;2.08;;
69716;SDS011;67420;46.144;19.666;2023-07-20T16:04:43;4.70;;;2.30;;
69716;SDS011;67420;46.144;19.666;2023-07-20T16:14:54;3.80;;;2.30;;
69716;SDS011;67420;46.144;19.666;2023-07-20T16:24:59;4.53;;;2.25;;
69716;SDS011;67420;46.144;19.666;2023-07-20T16:35:01;3.47;;;1.98;;
69716;SDS011;67420;46.144;19.666;2023-07-20T16:45:07;3.75;;;2.40;;
69716;SDS011;67420;46.144;19.666;2023-07-20T16:55:11;7.45;;;2.25;;
69716;SDS011;67420;46.144;19.666;2023-07-20T17:05:14;12.80;;;2.30;;
69716;SDS011;67420;46.144;19.666;2023-07-20T17:15:16;4.32;;;2.33;;
69716;SDS011;67420;46.144;19.666;2023-07-20T17:25:18;5.45;;;2.35;;
69716;SDS011;67420;46.144;19.666;2023-07-20T17:35:23;5.15;;;2.30;;
69716;SDS011;67420;46.144;19.666;2023-07-20T17:45:28;4.20;;;2.30;;
69716;SDS011;67420;46.144;19.666;2023-07-20T17:55:30;4.07;;;2.25;;
69716;SDS011;67420;46.144;19.666;2023-07-20T18:05:32;3.00;;;2.22;;
69716;SDS011;67420;46.144;19.666;2023-07-20T18:15:34;3.67;;;2.38;;
69716;SDS011;67420;46.144;19.666;2023-07-20T18:25:37;6.93;;;2.33;;
69716;SDS011;67420;46.144;19.666;2023-07-20T18:35:39;3.92;;;2.30;;
69716;SDS011;67420;46.144;19.666;2023-07-20T18:45:41;3.80;;;2.20;;
69716;SDS011;67420;46.144;19.666;2023-07-20T18:55:45;5.03;;;2.30;;
69716;SDS011;67420;46.144;19.666;2023-07-20T19:05:49;3.60;;;2.00;;
69716;SDS011;67420;46.144;19.666;2023-07-20T19:15:51;5.95;;;2.30;;
69716;SDS011;67420;46.144;19.666;2023-07-20T19:25:58;4.60;;;2.15;;
69716;SDS011;67420;46.144;19.666;2023-07-20T19:36:01;7.13;;;2.55;;
69716;SDS011;67420;46.144;19.666;2023-07-20T19:46:04;4.38;;;2.33;;
69716;SDS011;67420;46.144;19.666;2023-07-20T19:56:06;4.63;;;2.40;;
69716;SDS011;67420;46.144;19.666;2023-07-20T20:06:09;5.72;;;2.40;;
69716;SDS011;67420;46.144;19.666;2023-07-20T20:16:14;6.65;;;2.50;;
69716;SDS011;67420;46.144;19.666;2023-07-20T20:26:16;4.35;;;2.22;;
69716;SDS011;67420;46.144;19.666;2023-07-20T20:36:18;4.82;;;1.98;;
69716;SDS011;67420;46.144;19.666;2023-07-20T20:46:21;4.28;;;1.98;;
69716;SDS011;67420;46.144;19.666;2023-07-20T20:56:25;4.03;;;1.90;;
69716;SDS011;67420;46.144;19.666;2023-07-20T21:06:31;3.70;;;1.90;;
69716;SDS011;67420;46.144;19.666;2023-07-20T21:16:33;4.40;;;2.00;;
69716;SDS011;67420;46.144;19.666;2023-07-20T21:26:35;3.25;;;1.70;;
69716;SDS011;67420;46.144;19.666;2023-07-20T21:36:36;3.38;;;1.90;;
69716;SDS011;67420;46.144;19.666;2023-07-20T21:46:38;5.88;;;2.25;;
69716;SDS011;67420;46.144;19.666;2023-07-20T21:56:40;4.13;;;1.98;;
69716;SDS011;67420;46.144;19.666;2023-07-20T22:06:43;3.75;;;2.00;;
69716;SDS011;67420;46.144;19.666;2023-07-20T22:16:48;5.32;;;2.00;;
69716;SDS011;67420;46.144;19.666;2023-07-20T22:26:50;3.90;;;1.90;;
69716;SDS011;67420;46.144;19.666;2023-07-20T22:36:52;2.53;;;1.60;;
69716;SDS011;67420;46.144;19.666;2023-07-20T22:46:55;4.60;;;1.90;;
69716;SDS011;67420;46.144;19.666;2023-07-20T22:57:00;3.33;;;1.90;;
69716;SDS011;67420;46.144;19.666;2023-07-20T23:07:05;2.90;;;1.75;;
69716;SDS011;67420;46.144;19.666;2023-07-20T23:17:07;2.42;;;1.80;;
69716;SDS011;67420;46.144;19.666;2023-07-20T23:27:12;2.75;;;1.50;;
69716;SDS011;67420;46.144;19.666;2023-07-20T23:37:14;2.08;;;1.77;;
69716;SDS011;67420;46.144;19.666;2023-07-20T23:47:16;3.47;;;1.80;;
69716;SDS011;67420;46.144;19.666;2023-07-20T23:57:18;1.98;;;1.58;;
